sensor_id;sensor_type;location;lat;lon;timestamp;P1;durP1;ratioP1;P2;durP2;ratioP2
10154;SDS011;5118;48.570;7.916;2023-09-12T00:00:57;14.10;;;12.23;;
10154;SDS011;5118;48.570;7.916;2023-09-12T00:03:25;13.00;;;11.70;;
10154;SDS011;5118;48.570;7.916;2023-09-12T00:05:54;14.00;;;11.50;;
10154;SDS011;5118;48.570;7.916;2023-09-12T00:08:23;12.50;;;11.23;;
10154;SDS011;5118;48.570;7.916;2023-09-12T00:11:00;14.37;;;12.03;;
10154;SDS011;5118;48.570;7.916;2023-09-12T00:13:29;12.57;;;11.20;;
10154;SDS011;5118;48.570;7.916;2023-09-12T00:15:58;12.57;;;11.33;;
10154;SDS011;5118;48.570;7.916;2023-09-12T00:18:27;13.70;;;11.80;;
10154;SDS011;5118;48.570;7.916;2023-09-12T00:20:56;12.27;;;11.00;;
10154;SDS011;5118;48.570;7.916;2023-09-12T00:23:28;13.53;;;12.27;;
10154;SDS011;5118;48.570;7.916;2023-09-12T00:25:56;16.40;;;14.80;;
10154;SDS011;5118;48.570;7.916;2023-09-12T00:28:29;16.77;;;15.00;;
10154;SDS011;5118;48.570;7.916;2023-09-12T00:30:57;16.27;;;14.20;;
10154;SDS011;5118;48.570;7.916;2023-09-12T00:33:25;16.73;;;14.97;;
10154;SDS011;5118;48.570;7.916;2023-09-12T00:35:54;15.53;;;13.73;;
10154;SDS011;5118;48.570;7.916;2023-09-12T00:38:22;15.13;;;13.73;;
10154;SDS011;5118;48.570;7.916;2023-09-12T00:40:51;14.53;;;13.10;;
10154;SDS011;5118;48.570;7.916;2023-09-12T00:43:20;14.93;;;13.50;;
10154;SDS011;5118;48.570;7.916;2023-09-12T00:45:49;14.57;;;12.87;;
10154;SDS011;5118;48.570;7.916;2023-09-12T00:48:18;14.90;;;13.50;;
10154;SDS011;5118;48.570;7.916;2023-09-12T00:50:49;14.77;;;13.47;;
10154;SDS011;5118;48.570;7.916;2023-09-12T00:53:20;14.47;;;13.07;;
10154;SDS011;5118;48.570;7.916;2023-09-12T00:55:50;15.97;;;14.37;;
10154;SDS011;5118;48.570;7.916;2023-09-12T00:58:23;15.77;;;14.33;;
10154;SDS011;5118;48.570;7.916;2023-09-12T01:00:53;15.07;;;13.67;;
10154;SDS011;5118;48.570;7.916;2023-09-12T01:03:23;15.57;;;13.97;;
10154;SDS011;5118;48.570;7.916;2023-09-12T01:05:54;15.13;;;13.63;;
10154;SDS011;5118;48.570;7.916;2023-09-12T01:08:24;14.17;;;12.83;;
10154;SDS011;5118;48.570;7.916;2023-09-12T01:10:54;14.43;;;13.13;;
10154;SDS011;5118;48.570;7.916;2023-09-12T01:13:24;14.97;;;13.37;;
10154;SDS011;5118;48.570;7.916;2023-09-12T01:15:54;14.57;;;13.07;;
10154;SDS011;5118;48.570;7.916;2023-09-12T01:18:22;14.63;;;13.13;;
10154;SDS011;5118;48.570;7.916;2023-09-12T01:20:57;14.10;;;12.70;;
10154;SDS011;5118;48.570;7.916;2023-09-12T01:23:43;14.83;;;13.43;;
10154;SDS011;5118;48.570;7.916;2023-09-12T01:26:29;14.40;;;12.90;;
10154;SDS011;5118;48.570;7.916;2023-09-12T01:29:02;14.47;;;13.03;;
10154;SDS011;5118;48.570;7.916;2023-09-12T01:31:33;15.43;;;13.33;;
10154;SDS011;5118;48.570;7.916;2023-09-12T01:34:09;15.47;;;13.30;;
10154;SDS011;5118;48.570;7.916;2023-09-12T01:36:38;15.90;;;14.20;;
10154;SDS011;5118;48.570;7.916;2023-09-12T01:39:06;15.17;;;13.70;;
10154;SDS011;5118;48.570;7.916;2023-09-12T01:41:36;15.07;;;13.47;;
10154;SDS011;5118;48.570;7.916;2023-09-12T01:44:09;14.67;;;13.20;;
10154;SDS011;5118;48.570;7.916;2023-09-12T01:46:39;15.00;;;13.17;;
10154;SDS011;5118;48.570;7.916;2023-09-12T01:49:10;13.57;;;12.27;;
10154;SDS011;5118;48.570;7.916;2023-09-12T01:51:41;18.27;;;13.50;;
10154;SDS011;5118;48.570;7.916;2023-09-12T01:54:10;14.63;;;13.17;;
10154;SDS011;5118;48.570;7.916;2023-09-12T01:56:39;14.70;;;13.30;;
10154;SDS011;5118;48.570;7.916;2023-09-12T01:59:09;16.87;;;13.90;;
10154;SDS011;5118;48.570;7.916;2023-09-12T02:01:39;15.00;;;12.53;;
10154;SDS011;5118;48.570;7.916;2023-09-12T02:04:08;17.70;;;13.10;;
10154;SDS011;5118;48.570;7.916;2023-09-12T02:06:37;14.87;;;13.20;;
10154;SDS011;5118;48.570;7.916;2023-09-12T02:09:05;14.27;;;12.90;;
10154;SDS011;5118;48.570;7.916;2023-09-12T02:11:34;14.50;;;13.03;;
10154;SDS011;5118;48.570;7.916;2023-09-12T02:14:02;18.57;;;13.17;;
10154;SDS011;5118;48.570;7.916;2023-09-12T02:16:32;15.17;;;13.60;;
10154;SDS011;5118;48.570;7.916;2023-09-12T02:19:05;15.57;;;13.93;;
10154;SDS011;5118;48.570;7.916;2023-09-12T02:21:34;14.80;;;13.30;;
10154;SDS011;5118;48.570;7.916;2023-09-12T02:24:03;15.43;;;13.80;;
10154;SDS011;5118;48.570;7.916;2023-09-12T02:26:31;15.00;;;12.80;;
10154;SDS011;5118;48.570;7.916;2023-09-12T02:29:03;15.63;;;13.10;;
10154;SDS011;5118;48.570;7.916;2023-09-12T02:31:33;14.20;;;12.80;;
10154;SDS011;5118;48.570;7.916;2023-09-12T02:34:02;14.80;;;13.30;;
10154;SDS011;5118;48.570;7.916;2023-09-12T02:36:30;14.40;;;12.70;;
10154;SDS011;5118;48.570;7.916;2023-09-12T02:38:59;14.13;;;12.73;;
10154;SDS011;5118;48.570;7.916;2023-09-12T02:41:28;14.40;;;12.73;;
10154;SDS011;5118;48.570;7.916;2023-09-12T02:43:56;15.43;;;13.13;;
10154;SDS011;5118;48.570;7.916;2023-09-12T02:46:27;15.03;;;12.33;;
10154;SDS011;5118;48.570;7.916;2023-09-12T02:48:57;15.57;;;12.87;;
10154;SDS011;5118;48.570;7.916;2023-09-12T02:51:26;14.20;;;12.60;;
10154;SDS011;5118;48.570;7.916;2023-09-12T02:53:54;14.73;;;12.63;;
10154;SDS011;5118;48.570;7.916;2023-09-12T02:56:23;14.27;;;12.80;;
10154;SDS011;5118;48.570;7.916;2023-09-12T02:58:51;17.67;;;13.30;;
10154;SDS011;5118;48.570;7.916;2023-09-12T03:01:19;19.00;;;13.27;;
10154;SDS011;5118;48.570;7.916;2023-09-12T03:03:48;14.83;;;12.80;;
10154;SDS011;5118;48.570;7.916;2023-09-12T03:06:19;14.07;;;11.53;;
10154;SDS011;5118;48.570;7.916;2023-09-12T03:08:47;12.80;;;11.67;;
10154;SDS011;5118;48.570;7.916;2023-09-12T03:11:16;15.23;;;11.57;;
10154;SDS011;5118;48.570;7.916;2023-09-12T03:13:44;13.93;;;11.97;;
10154;SDS011;5118;48.570;7.916;2023-09-12T03:16:13;13.17;;;11.83;;
10154;SDS011;5118;48.570;7.916;2023-09-12T03:18:42;13.23;;;11.03;;
10154;SDS011;5118;48.570;7.916;2023-09-12T03:21:12;14.83;;;11.50;;
10154;SDS011;5118;48.570;7.916;2023-09-12T03:23:41;12.55;;;10.85;;
10154;SDS011;5118;48.570;7.916;2023-09-12T03:26:12;13.93;;;10.90;;
10154;SDS011;5118;48.570;7.916;2023-09-12T03:28:42;14.88;;;11.15;;
10154;SDS011;5118;48.570;7.916;2023-09-12T03:31:13;12.90;;;11.30;;
10154;SDS011;5118;48.570;7.916;2023-09-12T03:33:42;12.27;;;10.97;;
10154;SDS011;5118;48.570;7.916;2023-09-12T03:36:17;13.63;;;11.52;;
10154;SDS011;5118;48.570;7.916;2023-09-12T03:38:47;14.80;;;11.07;;
10154;SDS011;5118;48.570;7.916;2023-09-12T03:41:16;14.05;;;11.05;;
10154;SDS011;5118;48.570;7.916;2023-09-12T03:43:45;16.80;;;11.77;;
10154;SDS011;5118;48.570;7.916;2023-09-12T03:46:13;14.33;;;11.30;;
10154;SDS011;5118;48.570;7.916;2023-09-12T03:48:42;14.03;;;11.83;;
10154;SDS011;5118;48.570;7.916;2023-09-12T03:51:11;14.93;;;11.00;;
10154;SDS011;5118;48.570;7.916;2023-09-12T03:53:40;13.17;;;11.87;;
10154;SDS011;5118;48.570;7.916;2023-09-12T03:56:09;13.07;;;11.77;;
10154;SDS011;5118;48.570;7.916;2023-09-12T03:58:39;14.25;;;11.68;;
10154;SDS011;5118;48.570;7.916;2023-09-12T04:01:08;13.33;;;11.87;;
10154;SDS011;5118;48.570;7.916;2023-09-12T04:03:36;14.20;;;12.53;;
10154;SDS011;5118;48.570;7.916;2023-09-12T04:06:05;14.03;;;11.87;;
10154;SDS011;5118;48.570;7.916;2023-09-12T04:08:33;13.93;;;12.10;;
10154;SDS011;5118;48.570;7.916;2023-09-12T04:11:01;13.57;;;12.07;;
10154;SDS011;5118;48.570;7.916;2023-09-12T04:13:31;13.27;;;12.03;;
10154;SDS011;5118;48.570;7.916;2023-09-12T04:15:59;14.70;;;12.97;;
10154;SDS011;5118;48.570;7.916;2023-09-12T04:18:28;17.03;;;12.73;;
10154;SDS011;5118;48.570;7.916;2023-09-12T04:20:56;15.53;;;12.57;;
10154;SDS011;5118;48.570;7.916;2023-09-12T04:23:25;14.20;;;12.50;;
10154;SDS011;5118;48.570;7.916;2023-09-12T04:25:53;16.87;;;12.67;;
10154;SDS011;5118;48.570;7.916;2023-09-12T04:28:21;15.17;;;13.23;;
10154;SDS011;5118;48.570;7.916;2023-09-12T04:31:01;17.40;;;12.90;;
10154;SDS011;5118;48.570;7.916;2023-09-12T04:33:30;14.60;;;12.87;;
10154;SDS011;5118;48.570;7.916;2023-09-12T04:36:00;15.40;;;13.90;;
10154;SDS011;5118;48.570;7.916;2023-09-12T04:38:29;15.43;;;13.43;;
10154;SDS011;5118;48.570;7.916;2023-09-12T04:41:01;15.73;;;14.10;;
10154;SDS011;5118;48.570;7.916;2023-09-12T04:43:32;14.80;;;13.30;;
10154;SDS011;5118;48.570;7.916;2023-09-12T04:46:01;15.80;;;13.17;;
10154;SDS011;5118;48.570;7.916;2023-09-12T04:48:32;14.07;;;12.77;;
10154;SDS011;5118;48.570;7.916;2023-09-12T04:51:01;15.07;;;13.50;;
10154;SDS011;5118;48.570;7.916;2023-09-12T04:53:29;14.70;;;13.30;;
10154;SDS011;5118;48.570;7.916;2023-09-12T04:56:02;14.73;;;13.20;;
10154;SDS011;5118;48.570;7.916;2023-09-12T04:58:33;14.93;;;13.37;;
10154;SDS011;5118;48.570;7.916;2023-09-12T05:01:02;15.50;;;13.90;;
10154;SDS011;5118;48.570;7.916;2023-09-12T05:03:32;15.53;;;13.60;;
10154;SDS011;5118;48.570;7.916;2023-09-12T05:06:01;14.70;;;13.20;;
10154;SDS011;5118;48.570;7.916;2023-09-12T05:08:30;15.23;;;13.83;;
10154;SDS011;5118;48.570;7.916;2023-09-12T05:10:58;14.67;;;13.17;;
10154;SDS011;5118;48.570;7.916;2023-09-12T05:13:27;15.70;;;14.10;;
10154;SDS011;5118;48.570;7.916;2023-09-12T05:15:55;17.17;;;14.03;;
10154;SDS011;5118;48.570;7.916;2023-09-12T05:18:26;14.67;;;13.23;;
10154;SDS011;5118;48.570;7.916;2023-09-12T05:20:55;14.37;;;13.00;;
10154;SDS011;5118;48.570;7.916;2023-09-12T05:23:23;14.83;;;13.33;;
10154;SDS011;5118;48.570;7.916;2023-09-12T05:25:51;15.40;;;11.97;;
10154;SDS011;5118;48.570;7.916;2023-09-12T05:28:20;13.93;;;12.70;;
10154;SDS011;5118;48.570;7.916;2023-09-12T05:30:50;13.30;;;12.10;;
10154;SDS011;5118;48.570;7.916;2023-09-12T05:33:18;13.90;;;12.50;;
10154;SDS011;5118;48.570;7.916;2023-09-12T05:35:49;14.33;;;12.93;;
10154;SDS011;5118;48.570;7.916;2023-09-12T05:38:18;16.87;;;13.73;;
10154;SDS011;5118;48.570;7.916;2023-09-12T05:40:46;15.73;;;14.13;;
10154;SDS011;5118;48.570;7.916;2023-09-12T05:43:16;15.77;;;13.93;;
10154;SDS011;5118;48.570;7.916;2023-09-12T05:45:45;17.37;;;14.07;;
10154;SDS011;5118;48.570;7.916;2023-09-12T05:48:14;20.80;;;18.70;;
10154;SDS011;5118;48.570;7.916;2023-09-12T05:50:42;18.37;;;16.47;;
10154;SDS011;5118;48.570;7.916;2023-09-12T05:53:12;15.87;;;14.37;;
10154;SDS011;5118;48.570;7.916;2023-09-12T05:55:41;16.17;;;14.20;;
10154;SDS011;5118;48.570;7.916;2023-09-12T05:58:09;14.73;;;13.23;;
10154;SDS011;5118;48.570;7.916;2023-09-12T06:00:38;14.17;;;12.77;;
10154;SDS011;5118;48.570;7.916;2023-09-12T06:03:06;16.07;;;13.40;;
10154;SDS011;5118;48.570;7.916;2023-09-12T06:05:35;14.17;;;12.70;;
10154;SDS011;5118;48.570;7.916;2023-09-12T06:08:03;13.97;;;12.57;;
10154;SDS011;5118;48.570;7.916;2023-09-12T06:10:34;14.53;;;13.07;;
10154;SDS011;5118;48.570;7.916;2023-09-12T06:13:03;14.47;;;12.97;;
10154;SDS011;5118;48.570;7.916;2023-09-12T06:15:31;14.90;;;13.40;;
10154;SDS011;5118;48.570;7.916;2023-09-12T06:18:00;14.87;;;12.90;;
10154;SDS011;5118;48.570;7.916;2023-09-12T06:20:28;14.23;;;12.73;;
10154;SDS011;5118;48.570;7.916;2023-09-12T06:22:56;16.23;;;13.27;;
10154;SDS011;5118;48.570;7.916;2023-09-12T06:25:26;14.37;;;12.57;;
10154;SDS011;5118;48.570;7.916;2023-09-12T06:27:56;14.13;;;12.73;;
10154;SDS011;5118;48.570;7.916;2023-09-12T06:30:25;14.17;;;12.13;;
10154;SDS011;5118;48.570;7.916;2023-09-12T06:32:53;13.52;;;12.23;;
10154;SDS011;5118;48.570;7.916;2023-09-12T06:35:21;15.93;;;12.82;;
10154;SDS011;5118;48.570;7.916;2023-09-12T06:37:50;14.45;;;12.55;;
10154;SDS011;5118;48.570;7.916;2023-09-12T06:40:18;15.13;;;11.90;;
10154;SDS011;5118;48.570;7.916;2023-09-12T06:42:46;16.67;;;12.55;;
10154;SDS011;5118;48.570;7.916;2023-09-12T06:45:16;14.55;;;12.43;;
10154;SDS011;5118;48.570;7.916;2023-09-12T06:47:45;16.48;;;12.20;;
10154;SDS011;5118;48.570;7.916;2023-09-12T06:50:14;12.55;;;10.93;;
10154;SDS011;5118;48.570;7.916;2023-09-12T06:52:42;14.25;;;11.95;;
10154;SDS011;5118;48.570;7.916;2023-09-12T06:55:11;14.68;;;11.65;;
10154;SDS011;5118;48.570;7.916;2023-09-12T06:57:39;12.82;;;11.52;;
10154;SDS011;5118;48.570;7.916;2023-09-12T07:00:09;14.75;;;11.30;;
10154;SDS011;5118;48.570;7.916;2023-09-12T07:02:39;14.90;;;11.90;;
10154;SDS011;5118;48.570;7.916;2023-09-12T07:05:08;15.38;;;11.52;;
10154;SDS011;5118;48.570;7.916;2023-09-12T07:07:36;16.67;;;12.20;;
10154;SDS011;5118;48.570;7.916;2023-09-12T07:10:05;15.20;;;12.25;;
10154;SDS011;5118;48.570;7.916;2023-09-12T07:12:49;13.43;;;12.05;;
10154;SDS011;5118;48.570;7.916;2023-09-12T07:15:18;15.60;;;12.27;;
10154;SDS011;5118;48.570;7.916;2023-09-12T07:17:48;14.45;;;12.18;;
10154;SDS011;5118;48.570;7.916;2023-09-12T07:20:17;15.15;;;11.48;;
10154;SDS011;5118;48.570;7.916;2023-09-12T07:22:46;16.23;;;11.98;;
10154;SDS011;5118;48.570;7.916;2023-09-12T07:25:14;13.88;;;11.95;;
10154;SDS011;5118;48.570;7.916;2023-09-12T07:27:45;15.93;;;11.13;;
10154;SDS011;5118;48.570;7.916;2023-09-12T07:30:14;16.83;;;11.40;;
10154;SDS011;5118;48.570;7.916;2023-09-12T07:32:42;13.55;;;11.70;;
10154;SDS011;5118;48.570;7.916;2023-09-12T07:35:12;12.13;;;10.63;;
10154;SDS011;5118;48.570;7.916;2023-09-12T07:37:41;16.15;;;10.82;;
10154;SDS011;5118;48.570;7.916;2023-09-12T07:40:10;12.93;;;10.85;;
10154;SDS011;5118;48.570;7.916;2023-09-12T07:42:38;16.00;;;11.20;;
10154;SDS011;5118;48.570;7.916;2023-09-12T07:45:07;13.10;;;11.38;;
10154;SDS011;5118;48.570;7.916;2023-09-12T07:47:39;16.13;;;11.13;;
10154;SDS011;5118;48.570;7.916;2023-09-12T07:50:08;14.77;;;11.20;;
10154;SDS011;5118;48.570;7.916;2023-09-12T07:52:39;15.02;;;11.07;;
10154;SDS011;5118;48.570;7.916;2023-09-12T07:55:08;11.35;;;10.23;;
10154;SDS011;5118;48.570;7.916;2023-09-12T07:57:37;12.40;;;10.98;;
10154;SDS011;5118;48.570;7.916;2023-09-12T08:00:06;14.60;;;11.07;;
10154;SDS011;5118;48.570;7.916;2023-09-12T08:02:37;13.75;;;10.25;;
10154;SDS011;5118;48.570;7.916;2023-09-12T08:05:06;13.02;;;10.57;;
10154;SDS011;5118;48.570;7.916;2023-09-12T08:07:35;12.15;;;10.85;;
10154;SDS011;5118;48.570;7.916;2023-09-12T08:10:06;11.48;;;10.32;;
10154;SDS011;5118;48.570;7.916;2023-09-12T08:12:35;11.55;;;10.38;;
10154;SDS011;5118;48.570;7.916;2023-09-12T08:15:07;14.73;;;11.05;;
10154;SDS011;5118;48.570;7.916;2023-09-12T08:17:37;11.85;;;10.75;;
10154;SDS011;5118;48.570;7.916;2023-09-12T08:20:07;16.67;;;11.57;;
10154;SDS011;5118;48.570;7.916;2023-09-12T08:22:36;13.50;;;10.27;;
10154;SDS011;5118;48.570;7.916;2023-09-12T08:25:07;12.95;;;9.77;;
10154;SDS011;5118;48.570;7.916;2023-09-12T08:27:36;14.85;;;11.23;;
10154;SDS011;5118;48.570;7.916;2023-09-12T08:30:05;9.73;;;8.65;;
10154;SDS011;5118;48.570;7.916;2023-09-12T08:32:35;9.38;;;8.20;;
10154;SDS011;5118;48.570;7.916;2023-09-12T08:35:06;9.65;;;8.68;;
10154;SDS011;5118;48.570;7.916;2023-09-12T08:37:35;13.70;;;10.05;;
10154;SDS011;5118;48.570;7.916;2023-09-12T08:40:07;11.77;;;9.82;;
10154;SDS011;5118;48.570;7.916;2023-09-12T08:42:38;10.40;;;8.98;;
10154;SDS011;5118;48.570;7.916;2023-09-12T08:45:11;11.38;;;8.85;;
10154;SDS011;5118;48.570;7.916;2023-09-12T08:47:42;10.57;;;9.40;;
10154;SDS011;5118;48.570;7.916;2023-09-12T08:50:12;10.43;;;8.90;;
10154;SDS011;5118;48.570;7.916;2023-09-12T08:52:44;9.95;;;9.05;;
10154;SDS011;5118;48.570;7.916;2023-09-12T08:55:33;10.93;;;9.02;;
10154;SDS011;5118;48.570;7.916;2023-09-12T08:58:03;9.93;;;8.70;;
10154;SDS011;5118;48.570;7.916;2023-09-12T09:00:33;10.70;;;8.35;;
10154;SDS011;5118;48.570;7.916;2023-09-12T09:03:04;12.02;;;8.80;;
10154;SDS011;5118;48.570;7.916;2023-09-12T09:05:33;11.43;;;9.60;;
10154;SDS011;5118;48.570;7.916;2023-09-12T09:08:04;10.10;;;8.88;;
10154;SDS011;5118;48.570;7.916;2023-09-12T09:10:34;12.27;;;8.90;;
10154;SDS011;5118;48.570;7.916;2023-09-12T09:13:15;9.93;;;8.93;;
10154;SDS011;5118;48.570;7.916;2023-09-12T09:15:44;10.50;;;9.50;;
10154;SDS011;5118;48.570;7.916;2023-09-12T09:18:13;10.43;;;9.43;;
10154;SDS011;5118;48.570;7.916;2023-09-12T09:20:41;10.13;;;9.15;;
10154;SDS011;5118;48.570;7.916;2023-09-12T09:23:12;11.73;;;8.65;;
10154;SDS011;5118;48.570;7.916;2023-09-12T09:25:42;11.77;;;8.85;;
10154;SDS011;5118;48.570;7.916;2023-09-12T09:28:19;10.18;;;9.07;;
10154;SDS011;5118;48.570;7.916;2023-09-12T09:30:48;10.52;;;9.15;;
10154;SDS011;5118;48.570;7.916;2023-09-12T09:33:20;7.85;;;7.15;;
10154;SDS011;5118;48.570;7.916;2023-09-12T09:35:49;11.82;;;8.38;;
10154;SDS011;5118;48.570;7.916;2023-09-12T09:38:21;10.48;;;8.63;;
10154;SDS011;5118;48.570;7.916;2023-09-12T09:40:51;9.88;;;8.40;;
10154;SDS011;5118;48.570;7.916;2023-09-12T09:43:20;8.88;;;8.07;;
10154;SDS011;5118;48.570;7.916;2023-09-12T09:45:49;8.73;;;7.88;;
10154;SDS011;5118;48.570;7.916;2023-09-12T09:48:18;10.63;;;8.18;;
10154;SDS011;5118;48.570;7.916;2023-09-12T09:50:47;9.05;;;8.23;;
10154;SDS011;5118;48.570;7.916;2023-09-12T09:53:15;9.55;;;8.60;;
10154;SDS011;5118;48.570;7.916;2023-09-12T09:55:44;9.85;;;8.75;;
10154;SDS011;5118;48.570;7.916;2023-09-12T09:58:15;11.80;;;8.02;;
10154;SDS011;5118;48.570;7.916;2023-09-12T10:00:44;9.13;;;7.80;;
10154;SDS011;5118;48.570;7.916;2023-09-12T10:03:15;8.73;;;7.80;;
10154;SDS011;5118;48.570;7.916;2023-09-12T10:05:49;10.25;;;8.02;;
10154;SDS011;5118;48.570;7.916;2023-09-12T10:08:21;9.20;;;7.78;;
10154;SDS011;5118;48.570;7.916;2023-09-12T10:10:51;10.18;;;8.15;;
10154;SDS011;5118;48.570;7.916;2023-09-12T10:13:21;8.40;;;7.38;;
10154;SDS011;5118;48.570;7.916;2023-09-12T10:15:53;8.48;;;7.60;;
10154;SDS011;5118;48.570;7.916;2023-09-12T10:18:37;8.48;;;7.68;;
10154;SDS011;5118;48.570;7.916;2023-09-12T10:21:11;8.00;;;7.20;;
10154;SDS011;5118;48.570;7.916;2023-09-12T10:23:47;7.90;;;7.20;;
10154;SDS011;5118;48.570;7.916;2023-09-12T10:26:17;8.20;;;7.38;;
10154;SDS011;5118;48.570;7.916;2023-09-12T10:28:49;11.68;;;7.65;;
10154;SDS011;5118;48.570;7.916;2023-09-12T10:31:19;10.07;;;7.55;;
10154;SDS011;5118;48.570;7.916;2023-09-12T10:33:47;8.55;;;7.60;;
10154;SDS011;5118;48.570;7.916;2023-09-12T10:36:20;9.73;;;7.05;;
10154;SDS011;5118;48.570;7.916;2023-09-12T10:38:52;9.52;;;7.20;;
10154;SDS011;5118;48.570;7.916;2023-09-12T10:41:22;8.13;;;7.32;;
10154;SDS011;5118;48.570;7.916;2023-09-12T10:43:53;10.43;;;7.63;;
10154;SDS011;5118;48.570;7.916;2023-09-12T10:46:24;8.53;;;7.63;;
10154;SDS011;5118;48.570;7.916;2023-09-12T10:48:52;7.57;;;6.97;;
10154;SDS011;5118;48.570;7.916;2023-09-12T10:51:21;7.70;;;7.00;;
10154;SDS011;5118;48.570;7.916;2023-09-12T10:53:50;7.78;;;7.07;;
10154;SDS011;5118;48.570;7.916;2023-09-12T10:56:20;8.80;;;6.80;;
10154;SDS011;5118;48.570;7.916;2023-09-12T10:59:11;7.60;;;6.88;;
10154;SDS011;5118;48.570;7.916;2023-09-12T11:01:42;8.38;;;6.63;;
10154;SDS011;5118;48.570;7.916;2023-09-12T11:04:31;7.60;;;6.97;;
10154;SDS011;5118;48.570;7.916;2023-09-12T11:07:29;7.13;;;6.53;;
10154;SDS011;5118;48.570;7.916;2023-09-12T11:12:50;7.10;;;6.40;;
10154;SDS011;5118;48.570;7.916;2023-09-12T11:15:21;8.18;;;5.57;;
10154;SDS011;5118;48.570;7.916;2023-09-12T11:17:59;7.50;;;5.60;;
10154;SDS011;5118;48.570;7.916;2023-09-12T11:20:50;6.50;;;5.90;;
10154;SDS011;5118;48.570;7.916;2023-09-12T11:23:20;7.47;;;6.07;;
10154;SDS011;5118;48.570;7.916;2023-09-12T11:26:02;6.55;;;6.05;;
10154;SDS011;5118;48.570;7.916;2023-09-12T11:28:32;6.13;;;5.22;;
10154;SDS011;5118;48.570;7.916;2023-09-12T11:31:03;6.00;;;5.50;;
10154;SDS011;5118;48.570;7.916;2023-09-12T11:33:32;6.47;;;5.80;;
10154;SDS011;5118;48.570;7.916;2023-09-12T11:36:01;5.97;;;5.38;;
10154;SDS011;5118;48.570;7.916;2023-09-12T11:38:32;5.93;;;5.40;;
10154;SDS011;5118;48.570;7.916;2023-09-12T11:41:00;5.47;;;5.05;;
10154;SDS011;5118;48.570;7.916;2023-09-12T11:43:28;6.13;;;5.72;;
10154;SDS011;5118;48.570;7.916;2023-09-12T11:45:58;6.20;;;5.70;;
10154;SDS011;5118;48.570;7.916;2023-09-12T11:48:29;6.03;;;5.43;;
10154;SDS011;5118;48.570;7.916;2023-09-12T11:51:01;6.10;;;5.47;;
10154;SDS011;5118;48.570;7.916;2023-09-12T11:53:35;5.38;;;4.97;;
10154;SDS011;5118;48.570;7.916;2023-09-12T11:56:03;8.77;;;5.57;;
10154;SDS011;5118;48.570;7.916;2023-09-12T11:58:32;7.38;;;5.35;;
10154;SDS011;5118;48.570;7.916;2023-09-12T12:01:28;5.57;;;4.93;;
10154;SDS011;5118;48.570;7.916;2023-09-12T12:03:58;5.55;;;4.28;;
10154;SDS011;5118;48.570;7.916;2023-09-12T12:06:27;5.22;;;4.70;;
10154;SDS011;5118;48.570;7.916;2023-09-12T12:08:56;4.82;;;4.32;;
10154;SDS011;5118;48.570;7.916;2023-09-12T12:11:27;7.35;;;4.60;;
10154;SDS011;5118;48.570;7.916;2023-09-12T12:13:56;5.55;;;5.00;;
10154;SDS011;5118;48.570;7.916;2023-09-12T12:16:25;4.70;;;4.30;;
10154;SDS011;5118;48.570;7.916;2023-09-12T12:18:53;4.72;;;4.32;;
10154;SDS011;5118;48.570;7.916;2023-09-12T12:21:25;5.70;;;4.28;;
10154;SDS011;5118;48.570;7.916;2023-09-12T12:23:58;5.88;;;3.88;;
10154;SDS011;5118;48.570;7.916;2023-09-12T12:26:26;4.60;;;4.13;;
10154;SDS011;5118;48.570;7.916;2023-09-12T12:28:55;4.40;;;4.05;;
10154;SDS011;5118;48.570;7.916;2023-09-12T12:31:23;4.75;;;4.32;;
10154;SDS011;5118;48.570;7.916;2023-09-12T12:33:56;4.88;;;4.47;;
10154;SDS011;5118;48.570;7.916;2023-09-12T12:36:47;5.10;;;4.32;;
10154;SDS011;5118;48.570;7.916;2023-09-12T12:39:24;5.15;;;4.13;;
10154;SDS011;5118;48.570;7.916;2023-09-12T12:41:52;6.85;;;4.65;;
10154;SDS011;5118;48.570;7.916;2023-09-12T12:44:22;5.63;;;5.18;;
10154;SDS011;5118;48.570;7.916;2023-09-12T12:46:50;4.93;;;4.20;;
10154;SDS011;5118;48.570;7.916;2023-09-12T12:49:20;4.93;;;4.53;;
10154;SDS011;5118;48.570;7.916;2023-09-12T12:51:51;4.75;;;4.32;;
10154;SDS011;5118;48.570;7.916;2023-09-12T12:54:22;5.22;;;4.30;;
10154;SDS011;5118;48.570;7.916;2023-09-12T12:56:50;6.00;;;4.38;;
10154;SDS011;5118;48.570;7.916;2023-09-12T12:59:20;7.43;;;4.60;;
10154;SDS011;5118;48.570;7.916;2023-09-12T13:01:48;6.22;;;4.03;;
10154;SDS011;5118;48.570;7.916;2023-09-12T13:04:19;5.78;;;4.28;;
10154;SDS011;5118;48.570;7.916;2023-09-12T13:06:47;4.97;;;4.43;;
10154;SDS011;5118;48.570;7.916;2023-09-12T13:09:17;4.47;;;3.88;;
10154;SDS011;5118;48.570;7.916;2023-09-12T13:11:46;4.65;;;4.30;;
10154;SDS011;5118;48.570;7.916;2023-09-12T13:14:15;5.43;;;4.50;;
10154;SDS011;5118;48.570;7.916;2023-09-12T13:16:45;4.97;;;4.47;;
10154;SDS011;5118;48.570;7.916;2023-09-12T13:19:14;5.63;;;4.22;;
10154;SDS011;5118;48.570;7.916;2023-09-12T13:21:42;4.68;;;4.28;;
10154;SDS011;5118;48.570;7.916;2023-09-12T13:24:10;4.93;;;3.78;;
10154;SDS011;5118;48.570;7.916;2023-09-12T13:26:41;4.53;;;4.13;;
10154;SDS011;5118;48.570;7.916;2023-09-12T13:29:10;5.22;;;3.90;;
10154;SDS011;5118;48.570;7.916;2023-09-12T13:31:39;4.00;;;3.70;;
10154;SDS011;5118;48.570;7.916;2023-09-12T13:34:07;3.70;;;3.50;;
10154;SDS011;5118;48.570;7.916;2023-09-12T13:36:36;5.53;;;4.20;;
10154;SDS011;5118;48.570;7.916;2023-09-12T13:39:05;4.32;;;4.03;;
10154;SDS011;5118;48.570;7.916;2023-09-12T13:41:34;3.88;;;3.58;;
10154;SDS011;5118;48.570;7.916;2023-09-12T13:44:05;3.90;;;3.60;;
10154;SDS011;5118;48.570;7.916;2023-09-12T13:46:33;6.88;;;4.22;;
10154;SDS011;5118;48.570;7.916;2023-09-12T13:49:02;6.78;;;4.20;;
10154;SDS011;5118;48.570;7.916;2023-09-12T13:51:30;4.68;;;4.20;;
10154;SDS011;5118;48.570;7.916;2023-09-12T13:53:59;5.38;;;4.30;;
10154;SDS011;5118;48.570;7.916;2023-09-12T13:56:28;4.95;;;3.97;;
10154;SDS011;5118;48.570;7.916;2023-09-12T13:58:57;4.00;;;3.47;;
10154;SDS011;5118;48.570;7.916;2023-09-12T14:01:26;6.40;;;4.10;;
10154;SDS011;5118;48.570;7.916;2023-09-12T14:04:01;7.93;;;4.25;;
10154;SDS011;5118;48.570;7.916;2023-09-12T14:06:32;5.57;;;4.00;;
10154;SDS011;5118;48.570;7.916;2023-09-12T14:09:02;7.30;;;4.10;;
10154;SDS011;5118;48.570;7.916;2023-09-12T14:11:31;4.10;;;3.72;;
10154;SDS011;5118;48.570;7.916;2023-09-12T14:14:03;5.18;;;3.70;;
10154;SDS011;5118;48.570;7.916;2023-09-12T14:16:36;4.78;;;4.20;;
10154;SDS011;5118;48.570;7.916;2023-09-12T14:19:04;4.53;;;4.22;;
10154;SDS011;5118;48.570;7.916;2023-09-12T14:21:34;5.97;;;4.40;;
10154;SDS011;5118;48.570;7.916;2023-09-12T14:24:05;5.25;;;4.20;;
10154;SDS011;5118;48.570;7.916;2023-09-12T14:26:34;4.32;;;3.92;;
10154;SDS011;5118;48.570;7.916;2023-09-12T14:29:04;4.63;;;3.90;;
10154;SDS011;5118;48.570;7.916;2023-09-12T14:31:35;4.25;;;3.92;;
10154;SDS011;5118;48.570;7.916;2023-09-12T14:34:04;5.32;;;4.20;;
10154;SDS011;5118;48.570;7.916;2023-09-12T14:36:35;5.53;;;4.25;;
10154;SDS011;5118;48.570;7.916;2023-09-12T14:39:03;6.15;;;4.00;;
10154;SDS011;5118;48.570;7.916;2023-09-12T14:41:32;7.30;;;4.30;;
10154;SDS011;5118;48.570;7.916;2023-09-12T14:44:00;12.35;;;4.20;;
10154;SDS011;5118;48.570;7.916;2023-09-12T14:46:28;6.03;;;4.18;;
10154;SDS011;5118;48.570;7.916;2023-09-12T14:48:58;4.07;;;3.50;;
10154;SDS011;5118;48.570;7.916;2023-09-12T14:51:28;6.55;;;3.40;;
10154;SDS011;5118;48.570;7.916;2023-09-12T14:54:00;3.67;;;3.38;;
10154;SDS011;5118;48.570;7.916;2023-09-12T14:56:29;3.80;;;3.50;;
10154;SDS011;5118;48.570;7.916;2023-09-12T14:58:57;3.78;;;3.47;;
10154;SDS011;5118;48.570;7.916;2023-09-12T15:01:26;6.03;;;4.03;;
10154;SDS011;5118;48.570;7.916;2023-09-12T15:03:55;6.22;;;4.20;;
10154;SDS011;5118;48.570;7.916;2023-09-12T15:06:28;4.78;;;4.38;;